Terminal Aerodrome Forecast
Issued by NWS

Home | Current Version | Previous Version | Text Only | Print | Product List | Glossary On
Versions: 1 2 3 4 5 6 7 8 9 10 11 12 13 14
000
FTUS43 KGRR 241723
TAFMKG
TAF
KMKG 241723Z 2418/2518 21008KT P6SM VCSH OVC060
     FM241900 26003KT P6SM OVC060
     FM242100 35004KT P6SM OVC070
     FM250200 04007KT P6SM VCSH BKN050 OVC120
     FM250400 06004KT 5SM -RA BR OVC007
     FM250600 07005KT 3SM BR OVC003
     FM251100 06010KT 2SM -RA BR OVC003
     FM251600 08012KT 1/2SM -RA FG OVC001=

USA.gov is the U.S. government's official web portal to all federal, state and local government web resources and services.